createdAt,value
2017-01-08T00:00:59.556Z,1018.65
2017-01-08T00:02:09.181Z,1018.62
2017-01-08T00:03:18.880Z,1018.53
2017-01-08T00:04:29.054Z,1018.53
2017-01-08T00:05:38.035Z,1018.56
2017-01-08T00:06:47.017Z,1018.58
2017-01-08T00:07:56.005Z,1018.57
2017-01-08T00:09:05.019Z,1018.6
2017-01-08T00:10:14.002Z,1018.6
2017-01-08T00:11:23.001Z,1018.66
2017-01-08T00:12:31.979Z,1018.67
2017-01-08T00:13:40.960Z,1018.7
2017-01-08T00:14:50.039Z,1018.64
2017-01-08T00:15:59.173Z,1018.63
2017-01-08T00:17:08.157Z,1018.64
2017-01-08T00:18:17.135Z,1018.65
2017-01-08T00:19:26.116Z,1018.67
2017-01-08T00:20:35.095Z,1018.71
2017-01-08T00:21:44.076Z,1018.7
2017-01-08T00:22:53.234Z,1018.68
2017-01-08T00:24:02.215Z,1018.75
2017-01-08T00:25:11.195Z,1018.77
2017-01-08T00:26:20.688Z,1018.74
2017-01-08T00:27:30.978Z,1018.75
2017-01-08T00:28:39.961Z,1018.72
2017-01-08T00:29:49.306Z,1018.75
2017-01-08T00:30:58.961Z,1018.8
2017-01-08T00:32:08.592Z,1018.79
2017-01-08T00:33:18.189Z,1018.8
2017-01-08T00:34:28.403Z,1018.75
2017-01-08T00:35:42.029Z,1018.76
2017-01-08T00:36:52.448Z,1018.78
2017-01-08T00:38:03.217Z,1018.76
2017-01-08T00:39:12.836Z,1018.76
2017-01-08T00:40:22.142Z,1018.75
2017-01-08T00:41:31.695Z,1018.74
2017-01-08T00:42:41.557Z,1018.76
2017-01-08T00:43:51.408Z,1018.76
2017-01-08T00:45:01.081Z,1018.75
2017-01-08T00:46:11.049Z,1018.76
2017-01-08T00:47:20.977Z,1018.73
2017-01-08T00:48:30.825Z,1018.72
2017-01-08T00:49:39.817Z,1018.72
2017-01-08T00:50:48.793Z,1018.78
2017-01-08T00:51:58.087Z,1018.77
2017-01-08T00:53:08.327Z,1018.79
2017-01-08T00:54:18.658Z,1018.77
2017-01-08T00:55:28.345Z,1018.8
2017-01-08T00:56:38.046Z,1018.82
2017-01-08T00:57:47.734Z,1018.85
2017-01-08T00:58:57.405Z,1018.83
2017-01-08T01:00:06.990Z,1018.78
2017-01-08T01:01:16.444Z,1018.8
2017-01-08T01:02:26.021Z,1018.77
2017-01-08T01:03:35.001Z,1018.82
2017-01-08T01:04:43.979Z,1018.8
2017-01-08T01:05:52.961Z,1018.8
2017-01-08T01:07:01.944Z,1018.77
2017-01-08T01:08:10.929Z,1018.74
2017-01-08T01:09:19.907Z,1018.68
2017-01-08T01:10:29.245Z,1018.67
2017-01-08T01:11:38.226Z,1018.67
2017-01-08T01:12:47.324Z,1018.7
2017-01-08T01:13:57.421Z,1018.77
2017-01-08T01:15:06.502Z,1018.79
2017-01-08T01:16:15.796Z,1018.77
2017-01-08T01:17:24.829Z,1018.76
2017-01-08T01:18:34.707Z,1018.78
2017-01-08T01:19:43.689Z,1018.77
2017-01-08T01:20:53.557Z,1018.77
2017-01-08T01:22:03.091Z,1018.78
2017-01-08T01:23:15.132Z,1018.79
2017-01-08T01:24:24.653Z,1018.83
2017-01-08T01:25:33.680Z,1018.84
2017-01-08T01:26:43.734Z,1018.89
2017-01-08T01:27:53.389Z,1018.9
2017-01-08T01:29:02.917Z,1018.89
2017-01-08T01:30:12.135Z,1018.9
2017-01-08T01:31:21.181Z,1018.94
2017-01-08T01:32:30.455Z,1018.91
2017-01-08T01:33:39.625Z,1018.9
2017-01-08T01:34:48.827Z,1018.85
2017-01-08T01:35:57.859Z,1018.86
2017-01-08T01:37:07.744Z,1018.84
2017-01-08T01:38:17.230Z,1018.82
2017-01-08T01:39:26.210Z,1018.85
2017-01-08T01:40:35.966Z,1018.85
2017-01-08T01:41:45.072Z,1018.9
2017-01-08T01:42:54.075Z,1018.87
2017-01-08T01:44:03.062Z,1018.88
2017-01-08T01:45:12.048Z,1018.87
2017-01-08T01:46:21.033Z,1018.86
2017-01-08T01:47:30.011Z,1018.87
2017-01-08T01:48:38.993Z,1018.87
2017-01-08T01:49:47.974Z,1018.9
2017-01-08T01:50:56.956Z,1018.92
2017-01-08T01:52:05.941Z,1018.91
2017-01-08T01:53:14.931Z,1018.89
2017-01-08T01:54:23.912Z,1018.85
2017-01-08T01:55:32.892Z,1018.85
2017-01-08T01:56:41.875Z,1018.78
2017-01-08T01:57:50.858Z,1018.72
2017-01-08T01:58:59.835Z,1018.77
2017-01-08T02:00:08.815Z,1018.78
2017-01-08T02:01:17.797Z,1018.8
2017-01-08T02:02:26.797Z,1018.77
2017-01-08T02:03:35.779Z,1018.77
2017-01-08T02:04:44.761Z,1018.74
2017-01-08T02:05:53.739Z,1018.74
2017-01-08T02:07:02.767Z,1018.74
2017-01-08T02:08:11.747Z,1018.72
2017-01-08T02:09:21.270Z,1018.79
2017-01-08T02:10:30.384Z,1018.81
2017-01-08T02:11:39.401Z,1018.81
2017-01-08T02:12:49.614Z,1018.82
2017-01-08T02:13:58.594Z,1018.81
2017-01-08T02:15:07.574Z,1018.82
2017-01-08T02:16:16.555Z,1018.87
2017-01-08T02:17:25.541Z,1018.87
2017-01-08T02:18:35.124Z,1018.89
2017-01-08T02:19:44.105Z,1018.93
2017-01-08T02:20:53.085Z,1018.91
2017-01-08T02:22:02.756Z,1018.91
2017-01-08T02:23:12.826Z,1018.89
2017-01-08T02:24:22.758Z,1018.9
2017-01-08T02:25:33.254Z,1018.9
2017-01-08T02:26:42.237Z,1018.88
2017-01-08T02:27:51.219Z,1018.96
2017-01-08T02:29:00.587Z,1018.97
2017-01-08T02:30:10.700Z,1018.98
2017-01-08T02:31:21.074Z,1019.01
2017-01-08T02:32:30.696Z,1019
2017-01-08T02:33:39.680Z,1018.97
2017-01-08T02:34:49.842Z,1019.01
2017-01-08T02:36:00.088Z,1019.02
2017-01-08T02:37:10.073Z,1019.04
2017-01-08T02:38:21.033Z,1019.1
2017-01-08T02:39:32.409Z,1019.08
2017-01-08T02:40:42.726Z,1019.12
2017-01-08T02:41:52.360Z,1019.11
2017-01-08T02:43:01.341Z,1019.14
2017-01-08T02:44:10.326Z,1019.12
2017-01-08T02:45:20.599Z,1019.15
2017-01-08T02:46:30.624Z,1019.19
2017-01-08T02:47:41.389Z,1019.2
2017-01-08T02:48:52.328Z,1019.22
2017-01-08T02:50:02.254Z,1019.16
2017-01-08T02:51:12.810Z,1019.14
2017-01-08T02:52:23.029Z,1019.13
2017-01-08T02:53:32.577Z,1019.14
2017-01-08T02:54:43.006Z,1019.14
2017-01-08T02:55:53.689Z,1019.19
2017-01-08T02:57:04.591Z,1019.21
2017-01-08T02:58:16.418Z,1019.22
2017-01-08T02:59:26.996Z,1019.26
2017-01-08T03:00:38.861Z,1019.31
2017-01-08T03:01:50.072Z,1019.33
2017-01-08T03:03:00.606Z,1019.34
2017-01-08T03:04:12.152Z,1019.39
2017-01-08T03:05:23.715Z,1019.43
2017-01-08T03:06:32.701Z,1019.42
2017-01-08T03:07:41.684Z,1019.39
2017-01-08T03:08:52.957Z,1019.39
2017-01-08T03:10:03.957Z,1019.36
2017-01-08T03:11:16.079Z,1019.32
2017-01-08T03:12:26.501Z,1019.3
2017-01-08T03:13:38.260Z,1019.26
2017-01-08T03:14:49.038Z,1019.26
2017-01-08T03:16:00.012Z,1019.27
2017-01-08T03:17:12.125Z,1019.26
2017-01-08T03:18:22.922Z,1019.17
2017-01-08T03:19:33.701Z,1019.16
2017-01-08T03:20:45.235Z,1019.05
2017-01-08T03:21:56.481Z,1019.02
2017-01-08T03:23:07.180Z,1019.03
2017-01-08T03:24:19.084Z,1019.01
2017-01-08T03:25:30.073Z,1018.99
2017-01-08T03:26:40.628Z,1018.99
2017-01-08T03:27:52.458Z,1019.02
2017-01-08T03:29:03.757Z,1018.95
2017-01-08T03:30:14.251Z,1019
2017-01-08T03:31:26.010Z,1019
2017-01-08T03:32:36.850Z,1018.97
2017-01-08T03:33:47.864Z,1018.99
2017-01-08T03:35:00.928Z,1018.96
2017-01-08T03:36:12.447Z,1018.92
2017-01-08T03:37:24.239Z,1018.88
2017-01-08T03:38:35.198Z,1018.85
2017-01-08T03:39:45.501Z,1018.84
2017-01-08T03:40:55.290Z,1018.89
2017-01-08T03:42:07.421Z,1018.91
2017-01-08T03:43:16.409Z,1018.96
2017-01-08T03:44:27.729Z,1018.9
2017-01-08T03:45:37.902Z,1018.87
2017-01-08T03:46:53.419Z,1018.89
2017-01-08T03:48:03.006Z,1018.88
2017-01-08T03:49:11.991Z,1018.87
2017-01-08T03:50:25.787Z,1018.94
2017-01-08T03:51:39.628Z,1018.97
2017-01-08T03:52:54.337Z,1018.91
2017-01-08T03:54:07.376Z,1018.96
2017-01-08T03:55:21.005Z,1018.92
2017-01-08T03:56:32.674Z,1018.88
2017-01-08T03:57:46.006Z,1018.89
2017-01-08T03:58:57.359Z,1018.8
2017-01-08T04:00:09.320Z,1018.81
2017-01-08T04:01:23.452Z,1018.76
2017-01-08T04:02:35.841Z,1018.75
2017-01-08T04:03:49.129Z,1018.67
2017-01-08T04:05:00.804Z,1018.64
2017-01-08T04:06:09.783Z,1018.66
2017-01-08T04:07:18.771Z,1018.69
2017-01-08T04:08:27.760Z,1018.86
2017-01-08T04:09:36.745Z,1018.95
2017-01-08T04:10:45.726Z,1019.09
2017-01-08T04:11:54.735Z,1019.21
2017-01-08T04:13:03.715Z,1019.26
2017-01-08T04:14:12.743Z,1019.25
2017-01-08T04:15:21.731Z,1019.26
2017-01-08T04:16:30.709Z,1019.26
2017-01-08T04:17:39.689Z,1019.24
2017-01-08T04:18:48.673Z,1019.3
2017-01-08T04:19:57.659Z,1019.31
2017-01-08T04:21:06.643Z,1019.28
2017-01-08T04:22:15.629Z,1019.36
2017-01-08T04:23:24.607Z,1019.38
2017-01-08T04:24:33.589Z,1019.52
2017-01-08T04:25:42.596Z,1019.58
2017-01-08T04:26:51.573Z,1019.63
2017-01-08T04:28:00.557Z,1019.63
2017-01-08T04:29:09.544Z,1019.56
2017-01-08T04:30:18.529Z,1019.6
2017-01-08T04:31:27.510Z,1019.62
2017-01-08T04:32:36.492Z,1019.61
2017-01-08T04:33:45.476Z,1019.63
2017-01-08T04:34:54.456Z,1019.64
2017-01-08T04:36:03.438Z,1019.67
2017-01-08T04:37:12.419Z,1019.7
2017-01-08T04:38:21.405Z,1019.74
2017-01-08T04:39:30.393Z,1019.8
2017-01-08T04:40:39.372Z,1019.84
2017-01-08T04:41:48.352Z,1019.81
2017-01-08T04:42:57.336Z,1019.86
2017-01-08T04:44:06.324Z,1019.8
2017-01-08T04:45:15.304Z,1019.78
2017-01-08T04:46:24.288Z,1019.8
2017-01-08T04:47:33.266Z,1019.8
2017-01-08T04:48:42.254Z,1019.81
2017-01-08T04:49:51.232Z,1019.82
2017-01-08T04:51:00.213Z,1019.86
2017-01-08T04:52:09.192Z,1019.86
2017-01-08T04:53:18.170Z,1019.86
2017-01-08T04:54:27.152Z,1019.85
2017-01-08T04:55:36.139Z,1019.85
2017-01-08T04:56:45.146Z,1019.91
2017-01-08T04:57:54.122Z,1019.93
2017-01-08T04:59:03.104Z,1019.97
2017-01-08T05:00:12.090Z,1019.99
2017-01-08T05:01:21.073Z,1020.01
2017-01-08T05:02:30.053Z,1020.01
2017-01-08T05:03:39.036Z,1020
2017-01-08T05:04:48.016Z,1019.92
2017-01-08T05:05:56.994Z,1019.97
2017-01-08T05:07:05.975Z,1020.03
2017-01-08T05:08:14.976Z,1019.99
2017-01-08T05:09:23.959Z,1020.05
2017-01-08T05:10:32.950Z,1020.01
2017-01-08T05:11:41.932Z,1020.11
2017-01-08T05:12:50.916Z,1020.07
2017-01-08T05:13:59.920Z,1020.19
2017-01-08T05:15:08.915Z,1020.25
2017-01-08T05:16:17.894Z,1020.28
2017-01-08T05:17:26.873Z,1020.34
2017-01-08T05:18:35.855Z,1020.25
2017-01-08T05:19:44.835Z,1020.27
2017-01-08T05:20:53.819Z,1020.28
2017-01-08T05:22:02.804Z,1020.3
2017-01-08T05:23:11.789Z,1020.37
2017-01-08T05:24:20.773Z,1020.4
2017-01-08T05:25:29.751Z,1020.43
2017-01-08T05:26:38.740Z,1020.4
2017-01-08T05:27:47.718Z,1020.4
2017-01-08T05:28:56.702Z,1020.4
2017-01-08T05:30:05.681Z,1020.42
2017-01-08T05:31:14.667Z,1020.47
2017-01-08T05:32:23.644Z,1020.43
2017-01-08T05:33:32.625Z,1020.46
2017-01-08T05:34:41.608Z,1020.45
2017-01-08T05:35:50.590Z,1020.49
2017-01-08T05:36:59.577Z,1020.47
2017-01-08T05:38:08.560Z,1020.42
2017-01-08T05:39:17.540Z,1020.42
2017-01-08T05:40:26.521Z,1020.49
2017-01-08T05:41:35.500Z,1020.5
2017-01-08T05:42:44.484Z,1020.54
2017-01-08T05:43:53.470Z,1020.63
2017-01-08T05:45:02.452Z,1020.63
2017-01-08T05:46:11.434Z,1020.66
2017-01-08T05:47:20.418Z,1020.65
2017-01-08T05:48:29.398Z,1020.67
2017-01-08T05:49:38.377Z,1020.66
2017-01-08T05:50:47.360Z,1020.64
2017-01-08T05:51:56.340Z,1020.68
2017-01-08T05:53:05.321Z,1020.64
2017-01-08T05:54:14.304Z,1020.64
2017-01-08T05:55:23.285Z,1020.64
2017-01-08T05:56:32.267Z,1020.58
2017-01-08T05:57:41.251Z,1020.56
2017-01-08T05:58:50.226Z,1020.57
2017-01-08T05:59:59.208Z,1020.52
2017-01-08T06:01:08.192Z,1020.54
2017-01-08T06:02:17.172Z,1020.57
2017-01-08T06:03:26.150Z,1020.61
2017-01-08T06:04:35.138Z,1020.68
2017-01-08T06:05:44.117Z,1020.71
2017-01-08T06:06:53.099Z,1020.74
2017-01-08T06:08:02.078Z,1020.76
2017-01-08T06:09:11.067Z,1020.73
2017-01-08T06:10:20.050Z,1020.78
2017-01-08T06:11:29.027Z,1020.78
2017-01-08T06:12:38.011Z,1020.84
2017-01-08T06:13:46.991Z,1020.91
2017-01-08T06:14:55.974Z,1020.91
2017-01-08T06:16:04.951Z,1020.93
2017-01-08T06:17:13.954Z,1020.92
2017-01-08T06:18:22.937Z,1020.94
2017-01-08T06:19:31.918Z,1021.03
2017-01-08T06:20:40.898Z,1020.96
2017-01-08T06:21:49.900Z,1021.03
2017-01-08T06:22:58.883Z,1021.07
2017-01-08T06:24:07.862Z,1021.11
2017-01-08T06:25:16.841Z,1021.14
2017-01-08T06:26:25.828Z,1021.18
2017-01-08T06:27:34.814Z,1021.21
2017-01-08T06:28:43.801Z,1021.2
2017-01-08T06:29:52.786Z,1021.17
2017-01-08T06:31:01.761Z,1021.29
2017-01-08T06:32:10.744Z,1021.36
2017-01-08T06:33:19.723Z,1021.37
2017-01-08T06:34:28.704Z,1021.34
2017-01-08T06:35:37.687Z,1021.36
2017-01-08T06:36:46.668Z,1021.42
2017-01-08T06:37:55.650Z,1021.47
2017-01-08T06:39:04.632Z,1021.52
2017-01-08T06:40:13.619Z,1021.6
2017-01-08T06:41:22.596Z,1021.59
2017-01-08T06:42:31.582Z,1021.65
2017-01-08T06:43:40.559Z,1021.72
2017-01-08T06:44:49.544Z,1021.77
2017-01-08T06:45:58.524Z,1021.8
2017-01-08T06:47:07.506Z,1021.82
2017-01-08T06:48:16.487Z,1021.83
2017-01-08T06:49:25.472Z,1021.83
2017-01-08T06:50:34.454Z,1021.84
2017-01-08T06:51:43.432Z,1021.81
2017-01-08T06:52:52.411Z,1021.8
2017-01-08T06:54:01.390Z,1021.8
2017-01-08T06:55:10.371Z,1021.8
2017-01-08T06:56:19.354Z,1021.79
2017-01-08T06:57:28.333Z,1021.78
2017-01-08T06:58:37.314Z,1021.78
2017-01-08T06:59:46.297Z,1021.75
2017-01-08T07:00:55.289Z,1021.77
2017-01-08T07:02:04.273Z,1021.83
2017-01-08T07:03:13.270Z,1021.8
2017-01-08T07:04:22.248Z,1021.82
2017-01-08T07:05:31.224Z,1021.83
2017-01-08T07:06:40.203Z,1021.87
2017-01-08T07:07:49.184Z,1021.95
2017-01-08T07:08:58.161Z,1021.91
2017-01-08T07:10:07.144Z,1021.95
2017-01-08T07:11:16.535Z,1021.92
2017-01-08T07:12:25.522Z,1021.89
2017-01-08T07:13:34.504Z,1021.91
2017-01-08T07:14:43.483Z,1021.89
2017-01-08T07:15:52.466Z,1021.91
2017-01-08T07:17:01.444Z,1021.97
2017-01-08T07:18:10.420Z,1021.93
2017-01-08T07:19:19.397Z,1021.92
2017-01-08T07:20:28.378Z,1021.93
2017-01-08T07:21:37.368Z,1021.96
2017-01-08T07:22:46.348Z,1021.92
2017-01-08T07:23:55.333Z,1021.99
2017-01-08T07:25:04.312Z,1022.04
2017-01-08T07:26:13.294Z,1022.04
2017-01-08T07:27:22.275Z,1022.1
2017-01-08T07:28:31.255Z,1022.17
2017-01-08T07:29:40.247Z,1022.14
2017-01-08T07:30:49.228Z,1022.13
2017-01-08T07:31:58.240Z,1022.13
2017-01-08T07:33:07.223Z,1022.12
2017-01-08T07:34:16.201Z,1022.09
2017-01-08T07:35:25.177Z,1022.1
2017-01-08T07:36:34.156Z,1022.09
2017-01-08T07:37:43.135Z,1022.14
2017-01-08T07:38:52.116Z,1022.16
2017-01-08T07:40:01.098Z,1022.13
2017-01-08T07:41:10.081Z,1022.15
2017-01-08T07:42:19.059Z,1022.15
2017-01-08T07:43:28.037Z,1022.1
2017-01-08T07:44:37.023Z,1022.11
2017-01-08T07:45:46.026Z,1022.17
2017-01-08T07:46:55.011Z,1022.17
2017-01-08T07:48:03.989Z,1022.15
2017-01-08T07:49:12.970Z,1022.2
2017-01-08T07:50:21.953Z,1022.17
2017-01-08T07:51:30.933Z,1022.18
2017-01-08T07:52:39.914Z,1022.25
2017-01-08T07:53:48.892Z,1022.26
2017-01-08T07:54:57.873Z,1022.27
2017-01-08T07:56:06.853Z,1022.3
2017-01-08T07:57:15.833Z,1022.34
2017-01-08T07:58:24.812Z,1022.36
2017-01-08T07:59:33.795Z,1022.36
2017-01-08T08:00:42.773Z,1022.42
2017-01-08T08:01:51.754Z,1022.45
2017-01-08T08:03:00.733Z,1022.47
2017-01-08T08:04:09.737Z,1022.48
2017-01-08T08:05:18.718Z,1022.54
2017-01-08T08:06:27.697Z,1022.56
2017-01-08T08:07:36.674Z,1022.58
2017-01-08T08:08:45.660Z,1022.63
2017-01-08T08:09:54.644Z,1022.63
2017-01-08T08:11:03.624Z,1022.68
2017-01-08T08:12:12.607Z,1022.65
2017-01-08T08:13:21.587Z,1022.71
2017-01-08T08:14:30.570Z,1022.77
2017-01-08T08:15:39.548Z,1022.78
2017-01-08T08:16:48.535Z,1022.74
2017-01-08T08:17:57.521Z,1022.73
2017-01-08T08:19:06.525Z,1022.76
2017-01-08T08:20:15.511Z,1022.79
2017-01-08T08:21:24.494Z,1022.8
2017-01-08T08:22:33.480Z,1022.8
2017-01-08T08:23:42.489Z,1022.81
2017-01-08T08:24:51.469Z,1022.86
2017-01-08T08:26:00.449Z,1022.85
2017-01-08T08:27:09.433Z,1022.88
2017-01-08T08:28:18.415Z,1022.91
2017-01-08T08:29:27.397Z,1022.88
2017-01-08T08:30:36.405Z,1022.9
2017-01-08T08:31:45.384Z,1022.88
2017-01-08T08:32:54.361Z,1022.87
2017-01-08T08:34:03.342Z,1022.84
2017-01-08T08:35:12.328Z,1022.86
2017-01-08T08:36:21.307Z,1022.83
2017-01-08T08:37:30.284Z,1022.87
2017-01-08T08:38:39.261Z,1022.95
2017-01-08T08:39:48.241Z,1022.98
2017-01-08T08:40:57.224Z,1022.98
2017-01-08T08:42:06.201Z,1022.97
2017-01-08T08:43:15.186Z,1022.95
2017-01-08T08:44:24.162Z,1022.93
2017-01-08T08:45:33.268Z,1022.92
2017-01-08T08:46:42.254Z,1022.95
2017-01-08T08:47:51.234Z,1022.96
2017-01-08T08:49:00.217Z,1023.01
2017-01-08T08:50:09.196Z,1022.99
2017-01-08T08:51:18.177Z,1022.97
2017-01-08T08:52:27.162Z,1023.04
2017-01-08T08:53:36.141Z,1023.05
2017-01-08T08:54:45.131Z,1023.06
2017-01-08T08:55:54.114Z,1023.11
2017-01-08T08:57:03.092Z,1023.07
2017-01-08T08:58:12.069Z,1023.08
2017-01-08T08:59:21.063Z,1023.1
2017-01-08T09:00:30.039Z,1023.11
2017-01-08T09:01:39.018Z,1023.07
2017-01-08T09:02:48.002Z,1023.11
2017-01-08T09:03:56.988Z,1023.13
2017-01-08T09:05:05.963Z,1023.09
2017-01-08T09:06:14.950Z,1023.09
2017-01-08T09:07:23.932Z,1023.15
2017-01-08T09:08:33.186Z,1023.16
2017-01-08T09:09:42.203Z,1023.17
2017-01-08T09:10:51.190Z,1023.16
2017-01-08T09:12:00.169Z,1023.18
2017-01-08T09:13:09.150Z,1023.21
2017-01-08T09:14:18.133Z,1023.21
2017-01-08T09:15:27.136Z,1023.21
2017-01-08T09:16:36.116Z,1023.24
2017-01-08T09:17:45.094Z,1023.25
2017-01-08T09:18:54.098Z,1023.3
2017-01-08T09:20:03.576Z,1023.28
2017-01-08T09:21:12.560Z,1023.3
2017-01-08T09:22:21.542Z,1023.33
2017-01-08T09:23:30.523Z,1023.36
2017-01-08T09:24:39.502Z,1023.35
2017-01-08T09:25:48.485Z,1023.32
2017-01-08T09:26:57.477Z,1023.33
2017-01-08T09:28:06.459Z,1023.37
2017-01-08T09:29:15.439Z,1023.4
2017-01-08T09:30:24.422Z,1023.42
2017-01-08T09:31:33.405Z,1023.47
2017-01-08T09:32:42.397Z,1023.5
2017-01-08T09:33:51.388Z,1023.47
2017-01-08T09:35:00.390Z,1023.47
2017-01-08T09:36:09.371Z,1023.47
2017-01-08T09:37:18.900Z,1023.46
2017-01-08T09:38:29.135Z,1023.48
2017-01-08T09:39:38.681Z,1023.52
2017-01-08T09:40:47.672Z,1023.53
2017-01-08T09:41:56.737Z,1023.51
2017-01-08T09:43:05.891Z,1023.55
2017-01-08T09:44:14.999Z,1023.52
2017-01-08T09:45:24.371Z,1023.51
2017-01-08T09:46:33.350Z,1023.52
2017-01-08T09:47:42.327Z,1023.52
2017-01-08T09:48:51.304Z,1023.51
2017-01-08T09:50:00.289Z,1023.49
2017-01-08T09:51:09.300Z,1023.58
2017-01-08T09:52:18.283Z,1023.65
2017-01-08T09:53:27.893Z,1023.7
2017-01-08T09:54:37.529Z,1023.73
2017-01-08T09:55:46.517Z,1023.73
2017-01-08T09:56:55.504Z,1023.73
2017-01-08T09:58:04.784Z,1023.72
2017-01-08T09:59:14.899Z,1023.71
2017-01-08T10:00:24.257Z,1023.74
2017-01-08T10:01:33.234Z,1023.76
2017-01-08T10:02:42.217Z,1023.8
2017-01-08T10:03:51.195Z,1023.82
2017-01-08T10:05:00.656Z,1023.8
2017-01-08T10:06:10.341Z,1023.83
2017-01-08T10:07:20.888Z,1023.84
2017-01-08T10:08:30.956Z,1023.87
2017-01-08T10:09:40.604Z,1023.9
2017-01-08T10:10:49.583Z,1023.89
2017-01-08T10:12:00.331Z,1023.93
2017-01-08T10:13:10.240Z,1023.91
2017-01-08T10:14:20.704Z,1023.97
2017-01-08T10:15:30.991Z,1023.92
2017-01-08T10:16:40.322Z,1023.93
2017-01-08T10:17:49.950Z,1023.98
2017-01-08T10:18:59.644Z,1023.96
2017-01-08T10:20:08.627Z,1023.94
2017-01-08T10:21:17.785Z,1023.97
2017-01-08T10:22:28.751Z,1024.01
2017-01-08T10:23:39.567Z,1024.01
2017-01-08T10:24:48.914Z,1024
2017-01-08T10:25:58.553Z,1024.01
2017-01-08T10:27:08.232Z,1024.01
2017-01-08T10:28:17.551Z,1023.97
2017-01-08T10:29:26.986Z,1023.95
2017-01-08T10:30:37.097Z,1024.02
2017-01-08T10:31:47.215Z,1024.02
2017-01-08T10:32:57.536Z,1024.04
2017-01-08T10:34:08.204Z,1024.06
2017-01-08T10:35:18.197Z,1024.08
2017-01-08T10:36:28.168Z,1024.05
2017-01-08T10:37:37.870Z,1024.06
2017-01-08T10:38:47.324Z,1024.04
2017-01-08T10:39:57.517Z,1024.06
2017-01-08T10:41:08.304Z,1024.13
2017-01-08T10:42:17.795Z,1024.16
2017-01-08T10:43:28.715Z,1024.16
2017-01-08T10:44:38.934Z,1024.18
2017-01-08T10:45:48.254Z,1024.17
2017-01-08T10:46:57.436Z,1024.16
2017-01-08T10:48:08.092Z,1024.19
2017-01-08T10:49:18.263Z,1024.11
2017-01-08T10:50:29.002Z,1024.11
2017-01-08T10:51:37.994Z,1024.13
2017-01-08T10:52:47.841Z,1024.15
2017-01-08T10:53:57.261Z,1024.14
2017-01-08T10:55:06.611Z,1024.16
2017-01-08T10:56:15.589Z,1024.15
2017-01-08T10:57:24.674Z,1024.15
2017-01-08T10:58:33.760Z,1024.2
2017-01-08T10:59:42.991Z,1024.15
2017-01-08T11:00:52.218Z,1024.13
2017-01-08T11:02:02.072Z,1024.17
2017-01-08T11:03:11.631Z,1024.13
2017-01-08T11:04:21.519Z,1024.14
2017-01-08T11:05:30.503Z,1024.18
2017-01-08T11:06:39.504Z,1024.16
2017-01-08T11:07:48.866Z,1024.19
2017-01-08T11:08:58.522Z,1024.16
2017-01-08T11:10:07.525Z,1024.11
2017-01-08T11:11:16.816Z,1024.14
2017-01-08T11:12:28.898Z,1024.14
2017-01-08T11:13:39.287Z,1024.12
2017-01-08T11:14:48.956Z,1024.12
2017-01-08T11:15:59.603Z,1024.15
2017-01-08T11:17:08.588Z,1024.18
2017-01-08T11:18:17.965Z,1024.2
2017-01-08T11:19:26.946Z,1024.19
2017-01-08T11:20:35.930Z,1024.16
2017-01-08T11:21:44.916Z,1024.18
2017-01-08T11:22:53.978Z,1024.15
2017-01-08T11:24:03.395Z,1024.2
2017-01-08T11:25:12.526Z,1024.16
2017-01-08T11:26:21.714Z,1024.23
2017-01-08T11:27:30.692Z,1024.19
2017-01-08T11:28:39.674Z,1024.23
2017-01-08T11:29:48.661Z,1024.21
2017-01-08T11:30:58.182Z,1024.19
2017-01-08T11:32:07.176Z,1024.18
2017-01-08T11:33:16.185Z,1024.17
2017-01-08T11:34:25.168Z,1024.18
2017-01-08T11:35:34.154Z,1024.22
2017-01-08T11:36:43.138Z,1024.24
2017-01-08T11:37:52.142Z,1024.2
2017-01-08T11:39:01.118Z,1024.21
2017-01-08T11:40:10.094Z,1024.13
2017-01-08T11:41:19.073Z,1024.12
2017-01-08T11:42:28.063Z,1024.1
2017-01-08T11:43:37.151Z,1024.14
2017-01-08T11:44:46.708Z,1024.15
2017-01-08T11:45:56.313Z,1024.17
2017-01-08T11:47:05.303Z,1024.19
2017-01-08T11:48:14.391Z,1024.19
2017-01-08T11:49:23.371Z,1024.23
2017-01-08T11:50:33.769Z,1024.29
2017-01-08T11:51:42.806Z,1024.27
2017-01-08T11:52:51.785Z,1024.3
2017-01-08T11:54:00.787Z,1024.31
2017-01-08T11:55:09.766Z,1024.32
2017-01-08T11:56:18.747Z,1024.32
2017-01-08T11:57:27.734Z,1024.33
2017-01-08T11:58:36.723Z,1024.29
2017-01-08T11:59:45.737Z,1024.34
2017-01-08T12:00:54.720Z,1024.35
2017-01-08T12:02:03.697Z,1024.35
2017-01-08T12:03:12.682Z,1024.41
2017-01-08T12:04:21.668Z,1024.38
2017-01-08T12:05:30.651Z,1024.38
2017-01-08T12:06:39.850Z,1024.42
2017-01-08T12:07:48.909Z,1024.4
2017-01-08T12:08:58.233Z,1024.43
2017-01-08T12:10:07.216Z,1024.41
2017-01-08T12:11:16.201Z,1024.41
2017-01-08T12:12:25.188Z,1024.41
2017-01-08T12:13:34.168Z,1024.4
2017-01-08T12:14:43.152Z,1024.44
2017-01-08T12:15:52.134Z,1024.42
2017-01-08T12:17:01.131Z,1024.43
2017-01-08T12:18:10.108Z,1024.42
2017-01-08T12:19:19.089Z,1024.41
2017-01-08T12:20:28.068Z,1024.39
2017-01-08T12:21:37.068Z,1024.4
2017-01-08T12:22:46.060Z,1024.42
2017-01-08T12:23:55.045Z,1024.4
2017-01-08T12:25:04.031Z,1024.38
2017-01-08T12:26:13.008Z,1024.39
2017-01-08T12:27:21.988Z,1024.38
2017-01-08T12:28:30.972Z,1024.33
2017-01-08T12:29:39.963Z,1024.34
2017-01-08T12:30:48.972Z,1024.32
2017-01-08T12:31:57.967Z,1024.31
2017-01-08T12:33:06.965Z,1024.28
2017-01-08T12:34:15.946Z,1024.31
2017-01-08T12:35:24.930Z,1024.28
2017-01-08T12:36:33.914Z,1024.23
2017-01-08T12:37:42.892Z,1024.24
2017-01-08T12:38:52.099Z,1024.2
2017-01-08T12:40:01.081Z,1024.18
2017-01-08T12:41:10.196Z,1024.16
2017-01-08T12:42:19.177Z,1024.11
2017-01-08T12:43:28.162Z,1024.18
2017-01-08T12:44:37.146Z,1024.19
2017-01-08T12:45:46.126Z,1024.19
2017-01-08T12:46:55.105Z,1024.19
2017-01-08T12:48:04.091Z,1024.22
2017-01-08T12:49:13.071Z,1024.21
2017-01-08T12:50:22.051Z,1024.22
2017-01-08T12:51:31.028Z,1024.26
2017-01-08T12:52:40.112Z,1024.25
2017-01-08T12:53:49.097Z,1024.31
2017-01-08T12:54:58.077Z,1024.29
2017-01-08T12:56:07.059Z,1024.31
2017-01-08T12:57:16.039Z,1024.33
2017-01-08T12:58:25.018Z,1024.31
2017-01-08T12:59:33.996Z,1024.36
2017-01-08T13:00:42.984Z,1024.41
2017-01-08T13:01:51.972Z,1024.4
2017-01-08T13:03:00.955Z,1024.42
2017-01-08T13:04:10.607Z,1024.44
2017-01-08T13:05:21.160Z,1024.43
2017-01-08T13:06:31.412Z,1024.47
2017-01-08T13:07:40.921Z,1024.47
2017-01-08T13:08:49.903Z,1024.52
2017-01-08T13:09:58.891Z,1024.53
2017-01-08T13:11:07.873Z,1024.53
2017-01-08T13:12:16.856Z,1024.58
2017-01-08T13:13:25.837Z,1024.55
2017-01-08T13:14:34.817Z,1024.52
2017-01-08T13:15:44.605Z,1024.54
2017-01-08T13:16:54.814Z,1024.54
2017-01-08T13:18:05.503Z,1024.56
2017-01-08T13:19:16.122Z,1024.55
2017-01-08T13:20:25.537Z,1024.59
2017-01-08T13:21:36.758Z,1024.59
2017-01-08T13:22:46.644Z,1024.6
2017-01-08T13:23:56.036Z,1024.65
2017-01-08T13:25:05.717Z,1024.6
2017-01-08T13:26:15.675Z,1024.65
2017-01-08T13:27:26.285Z,1024.66
2017-01-08T13:28:36.639Z,1024.66
2017-01-08T13:29:46.334Z,1024.67
2017-01-08T13:30:56.049Z,1024.66
2017-01-08T13:32:05.935Z,1024.65
2017-01-08T13:33:15.770Z,1024.63
2017-01-08T13:34:25.404Z,1024.7
2017-01-08T13:35:35.922Z,1024.67
2017-01-08T13:36:45.564Z,1024.69
2017-01-08T13:37:54.883Z,1024.67
2017-01-08T13:39:05.354Z,1024.7
2017-01-08T13:40:15.420Z,1024.71
2017-01-08T13:41:25.174Z,1024.64
2017-01-08T13:42:34.276Z,1024.69
2017-01-08T13:43:43.669Z,1024.67
2017-01-08T13:44:54.551Z,1024.63
2017-01-08T13:46:04.875Z,1024.64
2017-01-08T13:47:14.517Z,1024.67
2017-01-08T13:48:24.927Z,1024.65
2017-01-08T13:49:35.758Z,1024.66
2017-01-08T13:50:46.554Z,1024.62
2017-01-08T13:51:56.509Z,1024.64
2017-01-08T13:53:06.296Z,1024.65
2017-01-08T13:54:15.491Z,1024.68
2017-01-08T13:55:25.947Z,1024.72
2017-01-08T13:56:43.865Z,1024.71
2017-01-08T13:57:54.593Z,1024.76
2017-01-08T13:59:05.040Z,1024.76
2017-01-08T14:00:15.487Z,1024.72
2017-01-08T14:01:25.896Z,1024.7
2017-01-08T14:02:36.408Z,1024.79
2017-01-08T14:03:45.397Z,1024.83